Podol'sk, Russia
Current Conditions -  °F | °C
As of 6:30 AM on Tuesday 21 Oct 2014 (Local Time) from UUMO Reporting Station
Haze Haze  
Wind Chill: 32°   Ceiling: 200
Heat Index: 36°   Visibility: 1.3mi
Dew Point: 36°   Wind: 4mph
Humidity: 100%   Direction: 80°E
Pressure: 29.29"   Gusts: NA
Location:  55.41°N, 37.55°E
Report Text: UUMO 210330Z 08002MPS 2100 BR BKN002 OVC008 02/02 Q0992 NOSIGRMK QFE729/0972 QBB080 26250350
Loading
Personal Weather Stations






























Interactive Weather Map
Tropical Storm Tracking
New forecast layout! Learn more

10-Day Weather Forecast

Advertisements
Track Severe Weather on mobile